Nearby METAR Reports

 

KMQS - Coatesville, Pennsylvania, USA
Distance from station: ENE 6mi, 10km
Updated: Tue, 15-Oct-2019 1:35am EDT
Clear
Clear
 Wind from calm
Wind: Calm
Temperature: 50°F , 10°C
Dew Point: 41°F , 5°C
Humidity: 71%
Barometer: 30.11 inHg , 1019.6 hPa
Clouds: Clear
Visibility: 10 miles , 16 km
2019/10/15 05:35 KMQS 150535Z AUTO 00000KT 10SM CLR 10/05 A3011 RMK AO2
KLNS - Lancaster, Pennsylvania, USA
Distance from station: NW 21mi, 33km
Updated: Tue, 15-Oct-2019 1:53am EDT
Clear
Clear
 Wind from calm
Wind: Calm
Temperature: 50°F , 10°C
Dew Point: 39°F , 4°C
Humidity: 67%
Barometer: 30.10 inHg , 1019.3 hPa
Clouds: Clear
Visibility: 10 miles , 16 km
2019/10/15 05:53 KLNS 150553Z AUTO 00000KT 10SM CLR 10/04 A3010 RMK AO2 SLP192 T01000044 10167 20089 51015
 
KILG - Wilmington, Delaware, USA
Distance from station: SE 28mi, 45km
Updated: Tue, 15-Oct-2019 1:51am EDT
Clear
Clear
 Wind from NNW
Wind: NNW 5 mph , 7 km/h
Temperature: 48°F , 9°C
Wind Chill: 46°F , 8°C
Dew Point: 46°F , 8°C
Humidity: 94%
Barometer: 30.10 inHg , 1019.3 hPa
Clouds: Clear
Visibility: 10 miles , 16 km
2019/10/15 05:51 KILG 150551Z AUTO 33004KT 10SM CLR 09/08 A3010 RMK AO2 SLP193 T00940078 10178 20094 53016
KRDG - Reading, Pennsylvania, USA
Distance from station: N 29mi, 47km
Updated: Tue, 15-Oct-2019 1:54am EDT
Clear
Clear
 Wind from calm
Wind: Calm
Temperature: 48°F , 9°C
Dew Point: 45°F , 7°C
Humidity: 87%
Barometer: 30.09 inHg , 1019 hPa
Clouds: Clear
Visibility: 10 miles , 16 km
2019/10/15 05:54 KRDG 150554Z AUTO 00000KT 10SM CLR 09/07 A3009 RMK AO2 SLP195 T00940072 10156 20083 53016
 
KPTW - Pottstown, Pennsylvania, USA
Distance from station: NE 30mi, 48km
Updated: Tue, 15-Oct-2019 1:54am EDT
Clear
Clear
 Wind from calm
Wind: Calm
Temperature: 46°F , 8°C
Dew Point: 39°F , 4°C
Humidity: 76%
Barometer: 30.12 inHg , 1020 hPa
Clouds: Clear
Visibility: 10 miles , 16 km
2019/10/15 05:54 KPTW 150554Z AUTO 00000KT 10SM CLR 08/04 A3012 RMK AO2 SLP197 T00830044 10139 20072 53018